createdAt,value
2019-02-22T00:00:49.094Z,26.00
2019-02-22T00:03:17.675Z,24.67
2019-02-22T00:05:46.238Z,21.60
2019-02-22T00:08:14.948Z,23.40
2019-02-22T00:10:43.482Z,23.60
2019-02-22T00:13:12.162Z,25.50
2019-02-22T00:15:40.787Z,21.40
2019-02-22T00:18:09.313Z,21.27
2019-02-22T00:20:37.842Z,21.60
2019-02-22T00:23:06.432Z,20.40
2019-02-22T00:25:34.952Z,20.20
2019-02-22T00:28:03.511Z,19.30
2019-02-22T00:30:32.109Z,19.50
2019-02-22T00:33:00.662Z,17.70
2019-02-22T00:35:29.188Z,19.10
2019-02-22T00:37:57.989Z,17.83
2019-02-22T00:40:26.542Z,19.50
2019-02-22T00:42:55.152Z,19.40
2019-02-22T00:45:23.660Z,17.30
2019-02-22T00:47:52.233Z,18.43
2019-02-22T00:50:21.229Z,18.30
2019-02-22T00:52:49.811Z,16.17
2019-02-22T00:55:18.346Z,16.10
2019-02-22T00:57:46.909Z,17.47
2019-02-22T01:00:15.535Z,18.50
2019-02-22T01:02:44.080Z,17.60
2019-02-22T01:05:12.656Z,17.80
2019-02-22T01:07:41.797Z,16.40
2019-02-22T01:10:10.311Z,16.10
2019-02-22T01:12:38.910Z,16.17
2019-02-22T01:15:07.742Z,16.63
2019-02-22T01:17:36.316Z,15.63
2019-02-22T01:20:06.018Z,14.80
2019-02-22T01:22:34.598Z,13.70
2019-02-22T01:25:03.114Z,14.90
2019-02-22T01:27:31.697Z,14.27
2019-02-22T01:30:00.207Z,14.30
2019-02-22T01:32:28.810Z,14.13
2019-02-22T01:34:57.330Z,14.90
2019-02-22T01:37:25.906Z,13.97
2019-02-22T01:39:54.841Z,13.90
2019-02-22T01:42:23.395Z,13.50
2019-02-22T01:44:51.908Z,12.73
2019-02-22T01:47:20.528Z,13.70
2019-02-22T01:49:49.101Z,12.67
2019-02-22T01:52:17.666Z,12.40
2019-02-22T01:54:46.198Z,12.57
2019-02-22T01:57:14.799Z,11.23
2019-02-22T01:59:43.299Z,11.30
2019-02-22T02:02:11.855Z,12.17
2019-02-22T02:04:40.378Z,12.17
2019-02-22T02:07:08.936Z,11.10
2019-02-22T02:09:37.518Z,10.70
2019-02-22T02:12:06.143Z,11.40
2019-02-22T02:14:34.713Z,11.10
2019-02-22T02:17:03.270Z,10.30
2019-02-22T02:19:31.884Z,10.20
2019-02-22T02:22:00.478Z,10.20
2019-02-22T02:24:28.986Z,9.57
2019-02-22T02:26:57.540Z,9.80
2019-02-22T02:29:26.055Z,9.23
2019-02-22T02:31:54.611Z,9.63
2019-02-22T02:34:23.116Z,8.93
2019-02-22T02:36:51.738Z,8.30
2019-02-22T02:39:20.252Z,9.43
2019-02-22T02:41:48.870Z,8.03
2019-02-22T02:44:17.373Z,8.67
2019-02-22T02:46:45.944Z,8.20
2019-02-22T02:49:14.439Z,7.07
2019-02-22T02:51:43.008Z,7.33
2019-02-22T02:54:11.897Z,8.23
2019-02-22T02:56:40.820Z,7.30
2019-02-22T02:59:09.376Z,6.33
2019-02-22T03:01:37.930Z,6.70
2019-02-22T03:04:06.447Z,7.17
2019-02-22T03:06:36.663Z,6.33
2019-02-22T03:09:06.667Z,6.63
2019-02-22T03:11:35.298Z,6.20
2019-02-22T03:14:03.820Z,6.83
2019-02-22T03:16:32.395Z,6.20
2019-02-22T03:19:00.915Z,6.10
2019-02-22T03:21:29.454Z,6.40
2019-02-22T03:23:57.969Z,5.47
2019-02-22T03:26:26.511Z,5.50
2019-02-22T03:28:55.034Z,5.20
2019-02-22T03:31:23.590Z,5.70
2019-02-22T03:33:52.149Z,5.50
2019-02-22T03:36:21.044Z,5.53
2019-02-22T03:38:49.912Z,5.40
2019-02-22T03:41:18.520Z,4.87
2019-02-22T03:43:47.046Z,5.47
2019-02-22T03:46:15.629Z,4.60
2019-02-22T03:48:44.145Z,5.10
2019-02-22T03:51:12.687Z,5.50
2019-02-22T03:53:42.906Z,4.80
2019-02-22T03:56:11.495Z,4.93
2019-02-22T03:58:40.114Z,5.77
2019-02-22T04:01:08.659Z,4.97
2019-02-22T04:03:37.256Z,5.10
2019-02-22T04:06:05.828Z,5.33
2019-02-22T04:08:34.386Z,4.37
2019-02-22T04:11:02.921Z,3.33
2019-02-22T04:13:31.425Z,2.60
2019-02-22T04:16:00.032Z,2.30
2019-02-22T04:18:28.574Z,1.63
2019-02-22T04:20:57.175Z,1.50
2019-02-22T04:23:25.689Z,1.67
2019-02-22T04:25:54.217Z,1.90
2019-02-22T04:28:22.752Z,1.97
2019-02-22T04:30:51.306Z,2.17
2019-02-22T04:33:19.823Z,2.73
2019-02-22T04:35:48.378Z,2.90
2019-02-22T04:38:16.962Z,2.90
2019-02-22T04:40:45.458Z,3.10
2019-02-22T04:43:14.098Z,2.80
2019-02-22T04:45:42.589Z,3.20
2019-02-22T04:48:11.146Z,3.03
2019-02-22T04:50:39.656Z,3.77
2019-02-22T04:53:08.204Z,3.80
2019-02-22T04:55:36.740Z,4.20
2019-02-22T04:58:05.323Z,3.90
2019-02-22T05:00:33.870Z,4.13
2019-02-22T05:03:02.448Z,4.10
2019-02-22T05:05:30.949Z,4.20
2019-02-22T05:07:59.527Z,5.30
2019-02-22T05:10:28.044Z,6.00
2019-02-22T05:12:56.614Z,6.17
2019-02-22T05:15:26.005Z,5.63
2019-02-22T05:17:54.578Z,7.30
2019-02-22T05:20:23.079Z,6.70
2019-02-22T05:23:02.995Z,7.63
2019-02-22T05:25:21.900Z,7.13
2019-02-22T05:27:50.495Z,7.83
2019-02-22T05:30:19.013Z,7.87
2019-02-22T05:32:47.590Z,7.87
2019-02-22T05:35:16.087Z,7.80
2019-02-22T05:37:44.647Z,7.27
2019-02-22T05:40:13.153Z,8.10
2019-02-22T05:42:41.816Z,8.77
2019-02-22T05:45:10.369Z,10.33
2019-02-22T05:47:38.999Z,10.20
2019-02-22T05:50:07.542Z,11.60
2019-02-22T05:52:36.129Z,12.60
2019-02-22T05:55:05.077Z,13.90
2019-02-22T05:57:33.608Z,14.53
2019-02-22T06:00:02.657Z,15.53
2019-02-22T06:02:33.710Z,15.03
2019-02-22T06:05:01.456Z,15.60
2019-02-22T06:07:30.060Z,16.00
2019-02-22T06:09:58.574Z,16.43
2019-02-22T06:12:34.507Z,15.00
2019-02-22T06:14:57.414Z,16.33
2019-02-22T06:17:25.969Z,14.33
2019-02-22T06:19:54.538Z,14.97
2019-02-22T06:22:29.733Z,14.50
2019-02-22T06:24:53.389Z,15.30
2019-02-22T06:27:21.913Z,15.37
2019-02-22T06:29:50.488Z,16.53
2019-02-22T06:32:19.046Z,15.83
2019-02-22T06:34:47.626Z,13.13
2019-02-22T06:37:16.144Z,14.77
2019-02-22T06:39:44.730Z,15.07
2019-02-22T06:42:13.337Z,14.80
2019-02-22T06:44:41.905Z,14.33
2019-02-22T06:47:10.451Z,15.20
2019-02-22T06:49:39.024Z,10.77
2019-02-22T06:52:07.557Z,10.40
2019-02-22T06:54:36.140Z,9.90
2019-02-22T06:57:04.743Z,9.33
2019-02-22T06:59:33.342Z,9.37
2019-02-22T07:02:01.903Z,8.50
2019-02-22T07:04:30.452Z,8.10
2019-02-22T07:07:00.125Z,7.73
2019-02-22T07:09:28.663Z,7.80
2019-02-22T07:11:58.834Z,6.70
2019-02-22T07:14:27.444Z,6.80
2019-02-22T07:16:55.964Z,8.03
2019-02-22T07:19:24.530Z,7.70
2019-02-22T07:21:55.428Z,5.50
2019-02-22T07:24:24.382Z,5.03
2019-02-22T07:26:52.911Z,5.03
2019-02-22T07:29:22.341Z,5.10
2019-02-22T07:31:50.917Z,5.00
2019-02-22T07:34:19.879Z,4.50
2019-02-22T07:36:48.405Z,4.50
2019-02-22T07:39:27.520Z,4.60
2019-02-22T07:41:47.207Z,4.33
2019-02-22T07:44:16.206Z,4.13
2019-02-22T07:46:44.740Z,3.70
2019-02-22T07:49:16.485Z,4.20
2019-02-22T07:51:45.015Z,3.40
2019-02-22T07:54:13.642Z,3.03
2019-02-22T07:56:42.160Z,2.10
2019-02-22T07:59:11.149Z,2.30
2019-02-22T08:01:47.248Z,1.93
2019-02-22T08:04:09.972Z,1.60
2019-02-22T08:06:38.596Z,1.50
2019-02-22T08:09:07.575Z,2.00
2019-02-22T08:11:36.105Z,1.87
2019-02-22T08:14:04.779Z,2.20
2019-02-22T08:16:33.358Z,2.67
2019-02-22T08:19:02.134Z,2.67
2019-02-22T08:21:30.703Z,2.27
2019-02-22T08:23:59.312Z,2.20
2019-02-22T08:26:27.821Z,2.03
2019-02-22T08:28:56.385Z,2.40
2019-02-22T08:31:24.914Z,2.20
2019-02-22T08:33:53.517Z,2.20
2019-02-22T08:36:22.039Z,2.70
2019-02-22T08:38:50.624Z,2.23
2019-02-22T08:41:19.173Z,2.43
2019-02-22T08:43:47.917Z,2.20
2019-02-22T08:46:16.458Z,2.27
2019-02-22T08:48:45.127Z,2.10
2019-02-22T08:51:13.646Z,2.07
2019-02-22T08:53:42.261Z,2.13
2019-02-22T08:56:10.775Z,2.20
2019-02-22T08:58:39.375Z,2.13
2019-02-22T09:01:07.935Z,2.17
2019-02-22T09:03:36.537Z,2.20
2019-02-22T09:06:05.142Z,2.53
2019-02-22T09:08:33.782Z,3.20
2019-02-22T09:11:02.581Z,1.77
2019-02-22T09:13:42.821Z,2.17
2019-02-22T09:16:02.394Z,2.10
2019-02-22T09:18:31.614Z,2.20
2019-02-22T09:21:00.133Z,2.07
2019-02-22T09:23:29.089Z,1.50
2019-02-22T09:25:57.801Z,2.13
2019-02-22T09:28:26.404Z,1.90
2019-02-22T09:30:54.993Z,2.10
2019-02-22T09:33:23.577Z,1.90
2019-02-22T09:35:52.144Z,2.20
2019-02-22T09:38:20.841Z,2.13
2019-02-22T09:40:49.390Z,2.07
2019-02-22T09:43:18.205Z,2.40
2019-02-22T09:45:47.076Z,2.20
2019-02-22T09:48:16.088Z,1.53
2019-02-22T09:50:44.644Z,1.63
2019-02-22T09:53:13.245Z,1.90
2019-02-22T09:55:41.859Z,1.63
2019-02-22T09:58:10.491Z,1.70
2019-02-22T10:00:39.101Z,1.80
2019-02-22T10:03:07.812Z,1.90
2019-02-22T10:05:36.426Z,1.83
2019-02-22T10:08:05.526Z,2.00
2019-02-22T10:10:34.136Z,1.87
2019-02-22T10:13:02.755Z,1.77
2019-02-22T10:15:31.364Z,2.07
2019-02-22T10:18:00.729Z,1.80
2019-02-22T10:20:31.549Z,1.43
2019-02-22T10:23:00.446Z,1.30
2019-02-22T10:25:29.183Z,1.70
2019-02-22T10:27:57.941Z,2.00
2019-02-22T10:30:26.912Z,1.70
2019-02-22T10:32:55.500Z,1.93
2019-02-22T10:35:24.071Z,1.90
2019-02-22T10:37:52.669Z,2.43
2019-02-22T10:40:21.225Z,1.50
2019-02-22T10:42:49.840Z,1.70
2019-02-22T10:45:18.413Z,2.10
2019-02-22T10:47:47.350Z,1.90
2019-02-22T10:50:15.933Z,1.60
2019-02-22T10:52:44.555Z,1.90
2019-02-22T10:55:14.027Z,1.80
2019-02-22T10:57:44.552Z,1.83
2019-02-22T11:00:15.258Z,1.90
2019-02-22T11:02:43.871Z,1.83
2019-02-22T11:05:12.646Z,2.07
2019-02-22T11:07:41.375Z,2.20
2019-02-22T11:10:11.916Z,1.83
2019-02-22T11:12:40.536Z,1.90
2019-02-22T11:15:11.146Z,2.17
2019-02-22T11:17:39.688Z,2.10
2019-02-22T11:20:09.966Z,1.87
2019-02-22T11:22:38.558Z,2.00
2019-02-22T11:25:13.306Z,2.43
2019-02-22T11:27:42.865Z,2.00
2019-02-22T11:30:17.596Z,1.77
2019-02-22T11:32:46.190Z,1.93
2019-02-22T11:35:14.810Z,2.03
2019-02-22T11:37:43.513Z,2.37
2019-02-22T11:40:12.427Z,1.80
2019-02-22T11:42:42.138Z,2.30
2019-02-22T11:45:11.188Z,2.27
2019-02-22T11:47:39.817Z,2.50
2019-02-22T11:50:12.644Z,2.23
2019-02-22T11:52:41.382Z,2.40
2019-02-22T11:55:11.247Z,2.50
2019-02-22T11:57:40.069Z,2.43
2019-02-22T12:00:20.355Z,2.33
2019-02-22T12:02:49.025Z,2.23
2019-02-22T12:05:18.036Z,2.40
2019-02-22T12:07:46.742Z,2.10
2019-02-22T12:10:15.376Z,2.10
2019-02-22T12:12:44.104Z,2.10
2019-02-22T12:15:13.803Z,2.30
2019-02-22T12:17:42.528Z,2.23
2019-02-22T12:20:11.740Z,2.23
2019-02-22T12:22:41.064Z,2.43
2019-02-22T12:25:13.584Z,2.40
2019-02-22T12:27:42.178Z,2.57
2019-02-22T12:30:16.122Z,2.53
2019-02-22T12:32:44.728Z,2.77
2019-02-22T12:35:13.327Z,2.67
2019-02-22T12:37:42.030Z,2.17
2019-02-22T12:40:11.841Z,2.40
2019-02-22T12:42:40.914Z,2.53
2019-02-22T12:45:13.153Z,2.10
2019-02-22T12:47:41.771Z,2.30
2019-02-22T12:50:11.802Z,2.47
2019-02-22T12:52:40.475Z,2.23
2019-02-22T12:55:10.010Z,2.13
2019-02-22T12:57:38.629Z,2.50
2019-02-22T13:00:18.108Z,2.00
2019-02-22T13:02:46.735Z,2.30
2019-02-22T13:05:21.662Z,1.90
2019-02-22T13:07:52.567Z,2.27
2019-02-22T13:10:20.501Z,3.50
2019-02-22T13:12:49.112Z,1.70
2019-02-22T13:15:17.739Z,2.07
2019-02-22T13:17:46.385Z,2.13
2019-02-22T13:20:15.265Z,2.17
2019-02-22T13:22:43.962Z,2.03
2019-02-22T13:25:12.990Z,2.07
2019-02-22T13:27:41.651Z,2.00
2019-02-22T13:30:15.159Z,2.57
2019-02-22T13:32:43.717Z,2.10
2019-02-22T13:35:12.470Z,2.10
2019-02-22T13:37:41.368Z,2.20
2019-02-22T13:40:16.663Z,2.60
2019-02-22T13:42:45.230Z,2.23
2019-02-22T13:45:26.094Z,2.30
2019-02-22T13:47:45.238Z,3.27
2019-02-22T13:50:16.251Z,2.10
2019-02-22T13:52:44.836Z,2.40
2019-02-22T13:55:14.312Z,2.73
2019-02-22T13:57:42.860Z,2.43
2019-02-22T14:00:14.647Z,2.50
2019-02-22T14:02:43.378Z,2.00
2019-02-22T14:05:11.997Z,1.97
2019-02-22T14:07:50.968Z,2.00
2019-02-22T14:10:20.562Z,2.30
2019-02-22T14:12:49.358Z,2.00
2019-02-22T14:15:18.802Z,2.10
2019-02-22T14:17:47.643Z,2.30
2019-02-22T14:20:16.339Z,2.40
2019-02-22T14:22:45.698Z,2.30
2019-02-22T14:25:14.353Z,2.43
2019-02-22T14:27:42.953Z,2.77
2019-02-22T14:30:14.969Z,2.90
2019-02-22T14:32:44.015Z,2.67
2019-02-22T14:35:13.166Z,2.50
2019-02-22T14:37:41.890Z,2.13
2019-02-22T14:40:12.135Z,2.30
2019-02-22T14:42:40.655Z,2.20
2019-02-22T14:45:10.959Z,2.37
2019-02-22T14:47:39.537Z,2.13
2019-02-22T14:50:13.791Z,2.53
2019-02-22T14:52:42.395Z,2.70
2019-02-22T14:55:11.413Z,2.50
2019-02-22T14:57:40.124Z,2.67
2019-02-22T15:00:15.155Z,2.70
2019-02-22T15:02:43.699Z,2.70
2019-02-22T15:05:13.758Z,2.33
2019-02-22T15:07:42.797Z,2.20
2019-02-22T15:10:13.965Z,2.20
2019-02-22T15:12:43.554Z,2.07
2019-02-22T15:15:19.997Z,2.30
2019-02-22T15:17:53.517Z,1.90
2019-02-22T15:20:22.297Z,2.30
2019-02-22T15:22:50.891Z,1.90
2019-02-22T15:25:20.104Z,2.47
2019-02-22T15:27:48.577Z,2.30
2019-02-22T15:30:17.746Z,1.80
2019-02-22T15:32:46.372Z,2.37
2019-02-22T15:35:16.124Z,2.40
2019-02-22T15:37:44.642Z,2.50
2019-02-22T15:40:14.540Z,2.50
2019-02-22T15:42:43.083Z,2.63
2019-02-22T15:45:14.965Z,2.50
2019-02-22T15:47:43.726Z,2.10
2019-02-22T15:50:14.899Z,2.47
2019-02-22T15:52:44.187Z,2.87
2019-02-22T15:55:14.507Z,2.70
2019-02-22T15:57:43.219Z,2.00
2019-02-22T16:00:21.488Z,2.57
2019-02-22T16:02:50.059Z,2.47
2019-02-22T16:05:20.678Z,2.30
2019-02-22T16:07:49.406Z,2.70
2019-02-22T16:10:19.190Z,2.30
2019-02-22T16:12:48.038Z,2.60
2019-02-22T16:15:17.116Z,2.20
2019-02-22T16:17:45.790Z,2.80
2019-02-22T16:20:14.894Z,2.50
2019-02-22T16:22:43.762Z,2.47
2019-02-22T16:25:19.490Z,2.20
2019-02-22T16:27:42.746Z,2.37
2019-02-22T16:30:14.559Z,2.90
2019-02-22T16:32:43.096Z,2.37
2019-02-22T16:35:11.663Z,2.60
2019-02-22T16:37:40.365Z,2.63
2019-02-22T16:40:12.579Z,3.10
2019-02-22T16:42:41.264Z,2.43
2019-02-22T16:45:12.077Z,2.63
2019-02-22T16:47:41.532Z,3.87
2019-02-22T16:50:11.900Z,2.60
2019-02-22T16:52:40.626Z,3.07
2019-02-22T16:55:12.420Z,2.60
2019-02-22T16:57:41.437Z,2.83
2019-02-22T17:00:15.281Z,3.13
2019-02-22T17:02:43.849Z,4.00
2019-02-22T17:05:14.643Z,3.70
2019-02-22T17:07:43.278Z,4.80
2019-02-22T17:10:12.049Z,3.77
2019-02-22T17:12:40.700Z,3.13
2019-02-22T17:15:11.280Z,3.60
2019-02-22T17:17:40.286Z,3.43
2019-02-22T17:20:11.992Z,3.70
2019-02-22T17:22:40.723Z,3.73
2019-02-22T17:25:12.076Z,3.73
2019-02-22T17:27:40.718Z,4.37
2019-02-22T17:30:14.224Z,4.13
2019-02-22T17:32:42.894Z,4.30
2019-02-22T17:35:11.488Z,4.00
2019-02-22T17:37:40.235Z,4.30
2019-02-22T17:40:17.130Z,2.93
2019-02-22T17:42:45.719Z,3.53
2019-02-22T17:45:14.292Z,3.40
2019-02-22T17:47:43.095Z,4.23
2019-02-22T17:50:12.107Z,4.13
2019-02-22T17:52:40.746Z,4.20
2019-02-22T17:55:10.481Z,3.97
2019-02-22T17:57:39.245Z,4.30
2019-02-22T18:00:14.490Z,3.90
2019-02-22T18:02:43.082Z,4.57
2019-02-22T18:05:11.654Z,4.20
2019-02-22T18:07:40.669Z,4.27
2019-02-22T18:10:11.526Z,5.23
2019-02-22T18:12:40.118Z,5.07
2019-02-22T18:15:12.053Z,4.33
2019-02-22T18:17:42.586Z,4.27
2019-02-22T18:20:11.212Z,4.53
2019-02-22T18:22:39.849Z,4.73
2019-02-22T18:25:10.018Z,4.73
2019-02-22T18:27:39.938Z,4.67
2019-02-22T18:30:11.912Z,5.07
2019-02-22T18:32:40.653Z,4.00
2019-02-22T18:35:09.301Z,5.07
2019-02-22T18:37:38.420Z,4.33
2019-02-22T18:40:18.203Z,4.77
2019-02-22T18:42:47.101Z,5.20
2019-02-22T18:45:17.639Z,4.60
2019-02-22T18:47:46.479Z,4.93
2019-02-22T18:50:15.206Z,4.90
2019-02-22T18:52:44.253Z,5.03
2019-02-22T18:55:13.188Z,4.33
2019-02-22T18:57:41.831Z,5.00
2019-02-22T19:00:20.656Z,4.50
2019-02-22T19:02:49.568Z,5.00
2019-02-22T19:05:18.118Z,4.43
2019-02-22T19:07:46.957Z,4.80
2019-02-22T19:10:19.342Z,4.67
2019-02-22T19:12:47.967Z,4.90
2019-02-22T19:15:16.581Z,5.10
2019-02-22T19:17:45.222Z,4.60
2019-02-22T19:20:20.127Z,5.30
2019-02-22T19:22:48.758Z,4.63
2019-02-22T19:25:17.383Z,5.03
2019-02-22T19:27:47.334Z,4.87
2019-02-22T19:30:20.946Z,5.60
2019-02-22T19:32:49.924Z,5.57
2019-02-22T19:35:18.707Z,5.50
2019-02-22T19:37:47.390Z,4.70
2019-02-22T19:40:21.501Z,5.20
2019-02-22T19:42:50.195Z,6.20
2019-02-22T19:45:18.985Z,6.67
2019-02-22T19:47:47.595Z,6.10
2019-02-22T19:50:16.301Z,5.50
2019-02-22T19:52:44.964Z,4.53
2019-02-22T19:55:16.682Z,5.30
2019-02-22T19:57:45.393Z,5.60
2019-02-22T20:00:18.711Z,5.20
2019-02-22T20:02:47.278Z,5.13
2019-02-22T20:05:16.647Z,6.60
2019-02-22T20:07:45.433Z,6.07
2019-02-22T20:10:18.548Z,7.17
2019-02-22T20:12:47.405Z,6.20
2019-02-22T20:15:17.455Z,5.60
2019-02-22T20:17:53.721Z,6.77
2019-02-22T20:20:17.587Z,5.83
2019-02-22T20:22:46.130Z,5.30
2019-02-22T20:25:14.976Z,5.50
2019-02-22T20:27:44.063Z,5.83
2019-02-22T20:30:14.868Z,5.53
2019-02-22T20:32:43.924Z,6.17
2019-02-22T20:35:18.183Z,5.93
2019-02-22T20:37:52.747Z,5.40
2019-02-22T20:40:17.288Z,5.60
2019-02-22T20:42:46.486Z,5.83
2019-02-22T20:45:15.115Z,5.60
2019-02-22T20:47:44.740Z,5.00
2019-02-22T20:50:14.539Z,5.67
2019-02-22T20:52:43.214Z,5.80
2019-02-22T20:55:12.365Z,6.00
2019-02-22T20:57:41.091Z,5.77
2019-02-22T21:00:18.284Z,5.83
2019-02-22T21:02:46.824Z,5.50
2019-02-22T21:05:16.095Z,5.30
2019-02-22T21:07:44.946Z,4.90
2019-02-22T21:10:22.359Z,5.83
2019-02-22T21:12:51.247Z,5.33
2019-02-22T21:15:20.081Z,4.77
2019-02-22T21:17:49.347Z,5.20
2019-02-22T21:20:24.319Z,5.50
2019-02-22T21:22:53.121Z,5.30
2019-02-22T21:25:21.747Z,4.80
2019-02-22T21:27:50.449Z,5.00
2019-02-22T21:30:21.330Z,6.13
2019-02-22T21:32:49.967Z,5.13
2019-02-22T21:35:18.602Z,5.43
2019-02-22T21:37:47.222Z,4.90
2019-02-22T21:40:15.781Z,5.10
2019-02-22T21:42:44.560Z,4.60
2019-02-22T21:45:16.924Z,5.13
2019-02-22T21:47:54.195Z,4.87
2019-02-22T21:50:16.991Z,4.73
2019-02-22T21:52:45.601Z,5.00
2019-02-22T21:55:15.437Z,5.10
2019-02-22T21:57:43.992Z,4.77
2019-02-22T22:00:20.979Z,5.40
2019-02-22T22:02:49.763Z,4.60
2019-02-22T22:05:20.261Z,5.60
2019-02-22T22:07:48.965Z,5.70
2019-02-22T22:10:17.524Z,4.60
2019-02-22T22:12:46.369Z,4.50
2019-02-22T22:15:17.733Z,4.33
2019-02-22T22:17:46.384Z,4.50
2019-02-22T22:20:14.944Z,5.00
2019-02-22T22:22:43.667Z,5.40
2019-02-22T22:25:13.959Z,4.90
2019-02-22T22:27:42.544Z,4.83
2019-02-22T22:30:15.097Z,4.73
2019-02-22T22:32:43.742Z,5.10
2019-02-22T22:35:16.604Z,5.67
2019-02-22T22:37:45.194Z,5.33
2019-02-22T22:40:14.309Z,6.40
2019-02-22T22:42:42.962Z,5.17
2019-02-22T22:45:13.944Z,4.87
2019-02-22T22:47:42.629Z,5.40
2019-02-22T22:50:12.905Z,5.27
2019-02-22T22:52:41.611Z,5.20
2019-02-22T22:55:11.300Z,5.03
2019-02-22T22:57:40.200Z,4.80
2019-02-22T23:00:50.850Z,5.77
2019-02-22T23:03:20.379Z,5.40
2019-02-22T23:05:48.867Z,4.47
2019-02-22T23:08:17.597Z,4.07
2019-02-22T23:10:46.624Z,5.13
2019-02-22T23:13:15.271Z,4.27
2019-02-22T23:15:43.867Z,4.73
2019-02-22T23:18:12.475Z,5.03
2019-02-22T23:20:41.048Z,4.67
2019-02-22T23:23:09.635Z,4.60
2019-02-22T23:25:39.241Z,5.40
2019-02-22T23:28:07.876Z,4.83
2019-02-22T23:30:36.466Z,5.00
2019-02-22T23:33:05.098Z,3.67
2019-02-22T23:35:33.619Z,4.70
2019-02-22T23:38:02.270Z,5.80
2019-02-22T23:40:30.831Z,5.70
2019-02-22T23:42:59.791Z,5.40
2019-02-22T23:45:28.407Z,5.30
2019-02-22T23:47:57.023Z,5.67
2019-02-22T23:50:25.568Z,5.10
2019-02-22T23:52:54.189Z,5.40
2019-02-22T23:55:22.746Z,4.93
2019-02-22T23:57:51.361Z,6.03
